createdAt,value
2019-03-26T00:00:57.820Z,0.50
2019-03-26T00:03:26.255Z,0.60
2019-03-26T00:05:54.658Z,0.70
2019-03-26T00:08:23.102Z,0.50
2019-03-26T00:10:51.590Z,0.53
2019-03-26T00:13:20.006Z,0.60
2019-03-26T00:15:48.452Z,0.60
2019-03-26T00:18:16.870Z,0.50
2019-03-26T00:20:45.311Z,0.57
2019-03-26T00:23:13.726Z,0.70
2019-03-26T00:25:42.171Z,0.60
2019-03-26T00:28:10.587Z,0.60
2019-03-26T00:30:39.018Z,0.77
2019-03-26T00:33:07.441Z,0.60
2019-03-26T00:35:35.881Z,0.67
2019-03-26T00:38:04.326Z,0.60
2019-03-26T00:40:32.746Z,0.53
2019-03-26T00:43:01.253Z,0.80
2019-03-26T00:45:29.668Z,0.40
2019-03-26T00:47:58.081Z,0.50
2019-03-26T00:50:26.508Z,0.70
2019-03-26T00:52:54.918Z,0.60
2019-03-26T00:55:23.438Z,0.73
2019-03-26T00:57:51.877Z,0.70
2019-03-26T01:00:37.275Z,0.50
2019-03-26T01:03:06.755Z,0.53
2019-03-26T01:05:35.161Z,1.07
2019-03-26T01:08:03.667Z,0.60
2019-03-26T01:10:32.072Z,0.50
2019-03-26T01:13:00.524Z,0.40
2019-03-26T01:15:28.963Z,0.73
2019-03-26T01:17:57.417Z,0.60
2019-03-26T01:20:25.834Z,0.50
2019-03-26T01:22:54.246Z,0.70
2019-03-26T01:25:22.669Z,0.50
2019-03-26T01:27:51.072Z,0.47
2019-03-26T01:30:19.506Z,0.57
2019-03-26T01:32:47.908Z,0.57
2019-03-26T01:35:16.333Z,0.60
2019-03-26T01:37:44.752Z,0.60
2019-03-26T01:40:13.192Z,0.70
2019-03-26T01:42:41.628Z,0.70
2019-03-26T01:45:10.792Z,0.57
2019-03-26T01:47:39.216Z,0.40
2019-03-26T01:50:07.829Z,0.70
2019-03-26T01:52:36.228Z,0.83
2019-03-26T01:55:06.715Z,0.67
2019-03-26T01:57:35.145Z,0.40
2019-03-26T02:00:05.101Z,0.60
2019-03-26T02:02:33.536Z,0.50
2019-03-26T02:05:01.981Z,0.43
2019-03-26T02:07:30.392Z,0.50
2019-03-26T02:09:58.793Z,0.60
2019-03-26T02:12:27.222Z,0.50
2019-03-26T02:14:55.636Z,0.82
2019-03-26T02:17:24.084Z,0.53
2019-03-26T02:19:52.524Z,0.50
2019-03-26T02:22:20.956Z,0.50
2019-03-26T02:24:49.362Z,0.50
2019-03-26T02:27:17.791Z,0.90
2019-03-26T02:29:46.202Z,0.50
2019-03-26T02:32:14.629Z,0.40
2019-03-26T02:34:43.137Z,0.57
2019-03-26T02:37:11.567Z,0.33
2019-03-26T02:39:39.964Z,0.50
2019-03-26T02:42:08.393Z,0.50
2019-03-26T02:44:36.835Z,0.43
2019-03-26T02:47:05.235Z,0.50
2019-03-26T02:49:33.683Z,0.40
2019-03-26T02:52:02.106Z,0.50
2019-03-26T02:54:30.522Z,0.57
2019-03-26T02:56:58.949Z,0.43
2019-03-26T02:59:27.370Z,0.33
2019-03-26T03:01:55.816Z,0.50
2019-03-26T03:04:24.285Z,0.40
2019-03-26T03:06:52.695Z,0.50
2019-03-26T03:09:21.141Z,0.50
2019-03-26T03:11:49.545Z,0.50
2019-03-26T03:14:17.988Z,0.50
2019-03-26T03:16:46.396Z,0.37
2019-03-26T03:19:16.046Z,0.30
2019-03-26T03:21:44.829Z,0.50
2019-03-26T03:24:13.253Z,0.60
2019-03-26T03:26:41.663Z,0.43
2019-03-26T03:29:10.083Z,0.47
2019-03-26T03:31:38.517Z,0.43
2019-03-26T03:34:06.956Z,0.77
2019-03-26T03:36:35.426Z,0.67
2019-03-26T03:39:05.428Z,0.43
2019-03-26T03:41:33.873Z,0.53
2019-03-26T03:44:02.272Z,0.43
2019-03-26T03:46:31.139Z,0.70
2019-03-26T03:49:00.858Z,0.50
2019-03-26T03:51:31.545Z,0.70
2019-03-26T03:54:00.493Z,0.53
2019-03-26T03:56:31.345Z,0.67
2019-03-26T03:59:02.330Z,0.50
2019-03-26T04:01:30.760Z,0.40
2019-03-26T04:03:59.202Z,0.47
2019-03-26T04:06:27.696Z,0.50
2019-03-26T04:08:56.136Z,0.50
2019-03-26T04:11:24.531Z,0.60
2019-03-26T04:13:52.945Z,0.60
2019-03-26T04:16:21.393Z,0.60
2019-03-26T04:18:49.834Z,0.50
2019-03-26T04:21:18.240Z,0.53
2019-03-26T04:23:46.681Z,0.30
2019-03-26T04:26:15.087Z,0.47
2019-03-26T04:28:43.768Z,0.40
2019-03-26T04:31:12.228Z,0.60
2019-03-26T04:33:40.638Z,0.40
2019-03-26T04:36:24.234Z,0.67
2019-03-26T04:38:39.195Z,0.60
2019-03-26T04:41:07.597Z,0.40
2019-03-26T04:43:36.030Z,0.50
2019-03-26T04:46:04.443Z,0.50
2019-03-26T04:48:32.867Z,0.73
2019-03-26T04:51:01.279Z,0.47
2019-03-26T04:53:29.710Z,0.50
2019-03-26T04:55:58.145Z,0.50
2019-03-26T04:58:26.577Z,0.67
2019-03-26T05:00:54.977Z,0.60
2019-03-26T05:03:23.382Z,0.50
2019-03-26T05:05:51.821Z,0.40
2019-03-26T05:08:20.217Z,0.47
2019-03-26T05:10:49.347Z,0.43
2019-03-26T05:13:17.848Z,0.40
2019-03-26T05:15:46.330Z,0.50
2019-03-26T05:18:14.751Z,0.40
2019-03-26T05:20:43.175Z,0.50
2019-03-26T05:23:11.574Z,0.90
2019-03-26T05:25:40.007Z,0.67
2019-03-26T05:28:08.416Z,0.40
2019-03-26T05:30:36.818Z,0.63
2019-03-26T05:33:05.244Z,0.60
2019-03-26T05:35:33.731Z,0.50
2019-03-26T05:38:02.158Z,0.50
2019-03-26T05:40:30.562Z,0.40
2019-03-26T05:42:58.969Z,0.60
2019-03-26T05:45:27.394Z,0.40
2019-03-26T05:47:55.840Z,0.40
2019-03-26T05:50:24.268Z,0.40
2019-03-26T05:52:52.702Z,0.43
2019-03-26T05:55:21.201Z,0.40
2019-03-26T05:57:49.616Z,0.50
2019-03-26T06:00:20.236Z,0.50
2019-03-26T06:02:48.713Z,0.70
2019-03-26T06:05:17.136Z,0.50
2019-03-26T06:07:45.568Z,0.50
2019-03-26T06:10:14.422Z,0.50
2019-03-26T06:12:42.868Z,0.40
2019-03-26T06:15:11.530Z,0.40
2019-03-26T06:17:40.084Z,0.70
2019-03-26T06:20:10.144Z,0.40
2019-03-26T06:22:38.648Z,0.40
2019-03-26T06:25:08.121Z,0.63
2019-03-26T06:27:36.530Z,0.47
2019-03-26T06:30:07.574Z,0.73
2019-03-26T06:32:35.980Z,0.70
2019-03-26T06:35:08.349Z,0.60
2019-03-26T06:37:36.915Z,0.50
2019-03-26T06:40:07.852Z,0.40
2019-03-26T06:42:36.291Z,0.40
2019-03-26T06:45:07.769Z,0.40
2019-03-26T06:47:36.207Z,0.75
2019-03-26T06:50:07.287Z,0.50
2019-03-26T06:52:35.711Z,0.80
2019-03-26T06:55:06.066Z,0.73
2019-03-26T06:57:35.858Z,0.60
2019-03-26T07:00:07.879Z,0.60
2019-03-26T07:02:36.490Z,0.40
2019-03-26T07:05:06.220Z,0.63
2019-03-26T07:07:34.651Z,0.90
2019-03-26T07:10:04.455Z,0.70
2019-03-26T07:12:32.866Z,0.57
2019-03-26T07:15:01.297Z,0.60
2019-03-26T07:17:30.590Z,0.60
2019-03-26T07:19:59.022Z,0.45
2019-03-26T07:22:27.479Z,0.70
2019-03-26T07:24:55.932Z,0.70
2019-03-26T07:27:24.352Z,0.65
2019-03-26T07:29:52.941Z,0.70
2019-03-26T07:32:21.347Z,0.68
2019-03-26T07:34:49.808Z,0.50
2019-03-26T07:37:18.222Z,0.60
2019-03-26T07:39:46.674Z,0.45
2019-03-26T07:42:15.092Z,0.60
2019-03-26T07:44:45.428Z,0.50
2019-03-26T07:47:13.656Z,0.70
2019-03-26T07:49:42.060Z,0.57
2019-03-26T07:52:10.484Z,0.70
2019-03-26T07:54:38.945Z,0.80
2019-03-26T07:57:07.344Z,0.50
2019-03-26T07:59:35.750Z,0.60
2019-03-26T08:02:04.248Z,0.60
2019-03-26T08:04:32.689Z,0.50
2019-03-26T08:07:01.100Z,0.70
2019-03-26T08:09:31.710Z,0.50
2019-03-26T08:11:59.869Z,0.70
2019-03-26T08:14:28.338Z,0.70
2019-03-26T08:16:56.777Z,0.47
2019-03-26T08:19:25.170Z,0.82
2019-03-26T08:21:53.616Z,0.55
2019-03-26T08:24:22.033Z,0.70
2019-03-26T08:26:52.023Z,0.47
2019-03-26T08:29:20.768Z,0.45
2019-03-26T08:31:49.186Z,0.75
2019-03-26T08:34:17.628Z,0.70
2019-03-26T08:36:46.034Z,0.53
2019-03-26T08:39:14.463Z,0.82
2019-03-26T08:41:42.882Z,0.50
2019-03-26T08:44:11.341Z,0.95
2019-03-26T08:46:39.746Z,1.02
2019-03-26T08:49:08.178Z,0.65
2019-03-26T08:51:36.623Z,0.70
2019-03-26T08:54:05.180Z,0.68
2019-03-26T08:56:33.585Z,0.88
2019-03-26T08:59:02.028Z,0.65
2019-03-26T09:01:30.464Z,0.68
2019-03-26T09:03:58.876Z,0.60
2019-03-26T09:06:27.310Z,0.70
2019-03-26T09:08:55.713Z,0.60
2019-03-26T09:11:24.135Z,0.70
2019-03-26T09:13:52.562Z,0.90
2019-03-26T09:16:20.980Z,0.70
2019-03-26T09:18:49.423Z,0.90
2019-03-26T09:21:17.830Z,0.60
2019-03-26T09:23:46.261Z,0.70
2019-03-26T09:26:14.666Z,0.70
2019-03-26T09:28:43.094Z,0.90
2019-03-26T09:31:11.517Z,0.65
2019-03-26T09:33:39.955Z,0.70
2019-03-26T09:36:08.370Z,0.90
2019-03-26T09:38:39.205Z,0.72
2019-03-26T09:41:07.035Z,0.82
2019-03-26T09:43:35.482Z,0.60
2019-03-26T09:46:03.915Z,0.90
2019-03-26T09:48:32.338Z,0.60
2019-03-26T09:51:00.776Z,0.70
2019-03-26T09:53:29.205Z,0.62
2019-03-26T09:55:57.598Z,0.88
2019-03-26T09:58:26.055Z,0.80
2019-03-26T10:00:54.499Z,0.80
2019-03-26T10:03:22.906Z,0.75
2019-03-26T10:05:51.318Z,0.93
2019-03-26T10:08:19.765Z,0.85
2019-03-26T10:10:48.189Z,0.50
2019-03-26T10:13:16.629Z,0.88
2019-03-26T10:15:45.044Z,0.75
2019-03-26T10:18:13.486Z,0.85
2019-03-26T10:20:41.901Z,0.80
2019-03-26T10:23:10.346Z,0.98
2019-03-26T10:25:38.758Z,0.90
2019-03-26T10:28:07.256Z,1.00
2019-03-26T10:30:39.648Z,0.80
2019-03-26T10:33:09.411Z,0.78
2019-03-26T10:35:38.042Z,0.80
2019-03-26T10:38:06.665Z,1.10
2019-03-26T10:40:37.616Z,1.50
2019-03-26T10:43:06.699Z,1.32
2019-03-26T10:45:35.100Z,1.67
2019-03-26T10:48:03.656Z,1.27
2019-03-26T10:50:32.138Z,1.30
2019-03-26T10:53:00.564Z,1.35
2019-03-26T10:55:29.008Z,1.55
2019-03-26T10:57:57.512Z,1.55
2019-03-26T11:00:26.105Z,1.35
2019-03-26T11:02:54.806Z,1.52
2019-03-26T11:05:23.431Z,1.90
2019-03-26T11:07:51.847Z,1.87
2019-03-26T11:10:20.288Z,2.22
2019-03-26T11:12:48.784Z,2.45
2019-03-26T11:15:17.343Z,2.22
2019-03-26T11:17:45.791Z,1.67
2019-03-26T11:20:14.760Z,1.72
2019-03-26T11:22:43.259Z,2.10
2019-03-26T11:25:12.415Z,2.27
2019-03-26T11:27:41.071Z,2.05
2019-03-26T11:30:09.023Z,2.00
2019-03-26T11:32:37.856Z,2.30
2019-03-26T11:35:07.754Z,2.17
2019-03-26T11:37:36.829Z,2.45
2019-03-26T11:40:07.718Z,2.50
2019-03-26T11:42:36.165Z,2.02
2019-03-26T11:45:07.740Z,2.33
2019-03-26T11:47:36.367Z,2.55
2019-03-26T11:50:05.615Z,2.65
2019-03-26T11:52:34.323Z,2.87
2019-03-26T11:55:03.017Z,2.52
2019-03-26T11:57:31.472Z,2.33
2019-03-26T11:59:59.902Z,2.30
2019-03-26T12:02:28.400Z,2.92
2019-03-26T12:04:57.009Z,2.70
2019-03-26T12:07:25.481Z,2.50
2019-03-26T12:09:53.965Z,3.10
2019-03-26T12:12:22.390Z,3.02
2019-03-26T12:14:50.820Z,2.65
2019-03-26T12:17:19.233Z,2.55
2019-03-26T12:19:47.699Z,2.65
2019-03-26T12:22:16.118Z,2.72
2019-03-26T12:24:44.553Z,3.45
2019-03-26T12:27:12.985Z,2.65
2019-03-26T12:29:41.454Z,3.37
2019-03-26T12:32:09.835Z,2.90
2019-03-26T12:34:38.347Z,3.10
2019-03-26T12:37:06.767Z,2.92
2019-03-26T12:39:35.223Z,3.10
2019-03-26T12:42:03.741Z,3.52
2019-03-26T12:44:32.141Z,2.85
2019-03-26T12:47:00.573Z,3.50
2019-03-26T12:49:29.021Z,3.40
2019-03-26T12:51:57.517Z,3.30
2019-03-26T12:54:25.937Z,3.83
2019-03-26T12:56:54.394Z,3.72
2019-03-26T12:59:22.800Z,3.95
2019-03-26T13:01:51.246Z,4.15
2019-03-26T13:04:19.670Z,3.50
2019-03-26T13:06:49.702Z,3.40
2019-03-26T13:09:18.135Z,3.92
2019-03-26T13:11:46.581Z,4.25
2019-03-26T13:14:14.988Z,4.30
2019-03-26T13:16:43.435Z,3.60
2019-03-26T13:19:11.849Z,4.15
2019-03-26T13:21:40.284Z,4.53
2019-03-26T13:24:11.282Z,4.85
2019-03-26T13:26:38.876Z,5.05
2019-03-26T13:29:07.311Z,4.50
2019-03-26T13:31:35.783Z,3.90
2019-03-26T13:34:04.274Z,5.15
2019-03-26T13:36:32.709Z,5.55
2019-03-26T13:39:01.135Z,4.62
2019-03-26T13:41:29.593Z,4.60
2019-03-26T13:43:58.021Z,5.20
2019-03-26T13:46:26.461Z,4.80
2019-03-26T13:48:54.884Z,4.90
2019-03-26T13:51:23.327Z,6.90
2019-03-26T13:53:51.752Z,8.20
2019-03-26T13:56:20.192Z,12.95
2019-03-26T13:58:48.653Z,15.45
2019-03-26T14:01:17.075Z,16.60
2019-03-26T14:03:45.508Z,18.00
2019-03-26T14:06:13.956Z,20.70
2019-03-26T14:08:42.412Z,16.85
2019-03-26T14:11:10.835Z,14.35
2019-03-26T14:13:39.266Z,14.33
2019-03-26T14:16:07.678Z,12.40
2019-03-26T14:18:36.118Z,11.40
2019-03-26T14:21:04.618Z,11.43
2019-03-26T14:23:33.067Z,11.60
2019-03-26T14:26:01.491Z,11.25
2019-03-26T14:28:29.935Z,9.60
2019-03-26T14:30:58.352Z,9.03
2019-03-26T14:33:26.878Z,10.65
2019-03-26T14:35:55.307Z,9.45
2019-03-26T14:38:23.740Z,8.98
2019-03-26T14:40:55.217Z,9.45
2019-03-26T14:43:22.340Z,7.70
2019-03-26T14:45:50.931Z,8.50
2019-03-26T14:48:19.349Z,9.40
2019-03-26T14:50:47.763Z,8.03
2019-03-26T14:53:16.193Z,7.55
2019-03-26T14:55:44.614Z,7.55
2019-03-26T14:58:13.126Z,8.13
2019-03-26T15:00:41.637Z,7.35
2019-03-26T15:03:10.060Z,7.25
2019-03-26T15:05:38.492Z,6.08
2019-03-26T15:08:06.918Z,6.72
2019-03-26T15:10:35.382Z,7.25
2019-03-26T15:13:03.787Z,6.15
2019-03-26T15:15:32.223Z,6.33
2019-03-26T15:18:00.643Z,6.42
2019-03-26T15:20:29.144Z,5.65
2019-03-26T15:22:58.167Z,5.30
2019-03-26T15:25:26.715Z,5.30
2019-03-26T15:27:55.238Z,7.08
2019-03-26T15:30:23.752Z,5.97
2019-03-26T15:32:52.190Z,6.20
2019-03-26T15:35:20.658Z,5.60
2019-03-26T15:37:49.070Z,4.72
2019-03-26T15:40:17.560Z,10.70
2019-03-26T15:42:45.994Z,10.63
2019-03-26T15:45:14.992Z,13.58
2019-03-26T15:47:43.505Z,12.47
2019-03-26T15:50:12.486Z,13.53
2019-03-26T15:52:42.385Z,10.68
2019-03-26T15:55:11.194Z,12.63
2019-03-26T15:57:39.676Z,10.15
2019-03-26T16:00:08.663Z,10.70
2019-03-26T16:02:37.090Z,11.88
2019-03-26T16:05:07.370Z,9.30
2019-03-26T16:07:35.791Z,11.00
2019-03-26T16:10:06.082Z,10.48
2019-03-26T16:12:41.121Z,15.43
2019-03-26T16:15:06.598Z,12.40
2019-03-26T16:17:35.045Z,23.35
2019-03-26T16:20:04.614Z,17.27
2019-03-26T16:22:33.136Z,16.85
2019-03-26T16:25:01.561Z,17.98
2019-03-26T16:27:30.006Z,16.30
2019-03-26T16:29:58.462Z,15.55
2019-03-26T16:32:26.882Z,17.55
2019-03-26T16:34:55.299Z,16.20
2019-03-26T16:37:23.740Z,17.37
2019-03-26T16:39:52.172Z,13.85
2019-03-26T16:42:20.624Z,12.70
2019-03-26T16:44:49.064Z,17.25
2019-03-26T16:47:17.520Z,15.25
2019-03-26T16:49:45.968Z,16.55
2019-03-26T16:52:14.458Z,16.62
2019-03-26T16:54:42.921Z,16.05
2019-03-26T16:57:11.342Z,18.95
2019-03-26T16:59:39.836Z,19.35
2019-03-26T17:02:08.328Z,19.95
2019-03-26T17:04:36.751Z,19.27
2019-03-26T17:07:05.749Z,19.90
2019-03-26T17:09:34.257Z,18.05
2019-03-26T17:12:03.786Z,21.02
2019-03-26T17:14:32.408Z,16.67
2019-03-26T17:17:00.843Z,17.23
2019-03-26T17:19:32.465Z,21.05
2019-03-26T17:21:59.576Z,17.73
2019-03-26T17:24:28.061Z,23.00
2019-03-26T17:26:56.503Z,26.80
2019-03-26T17:29:24.935Z,25.92
2019-03-26T17:31:53.389Z,51.00
2019-03-26T17:34:21.895Z,38.78
2019-03-26T17:36:50.351Z,27.58
2019-03-26T17:39:18.763Z,25.17
2019-03-26T17:41:47.267Z,31.17
2019-03-26T17:44:15.717Z,36.50
2019-03-26T17:46:44.235Z,40.55
2019-03-26T17:49:12.661Z,38.28
2019-03-26T17:51:41.310Z,39.67
2019-03-26T17:54:09.706Z,35.92
2019-03-26T17:56:38.156Z,36.48
2019-03-26T17:59:06.680Z,41.63
2019-03-26T18:01:35.138Z,39.80
2019-03-26T18:04:03.571Z,33.38
2019-03-26T18:06:32.062Z,33.55
2019-03-26T18:09:00.497Z,33.08
2019-03-26T18:11:28.960Z,31.60
2019-03-26T18:13:57.405Z,24.18
2019-03-26T18:16:25.853Z,22.22
2019-03-26T18:18:55.104Z,18.75
2019-03-26T18:21:23.511Z,17.27
2019-03-26T18:23:51.961Z,17.90
2019-03-26T18:26:20.383Z,18.87
2019-03-26T18:28:48.835Z,16.07
2019-03-26T18:31:17.253Z,11.70
2019-03-26T18:33:45.721Z,13.65
2019-03-26T18:36:14.144Z,14.55
2019-03-26T18:38:42.586Z,15.48
2019-03-26T18:41:11.032Z,13.70
2019-03-26T18:43:39.557Z,19.70
2019-03-26T18:46:08.108Z,22.93
2019-03-26T18:48:36.541Z,19.67
2019-03-26T18:51:05.037Z,16.05
2019-03-26T18:53:33.557Z,14.45
2019-03-26T18:56:02.005Z,10.43
2019-03-26T18:58:30.493Z,9.68
2019-03-26T19:00:58.931Z,8.90
2019-03-26T19:03:27.350Z,13.83
2019-03-26T19:05:55.763Z,15.65
2019-03-26T19:08:24.205Z,12.63
2019-03-26T19:10:52.640Z,16.40
2019-03-26T19:13:21.083Z,15.50
2019-03-26T19:15:49.534Z,16.83
2019-03-26T19:18:17.987Z,15.53
2019-03-26T19:20:46.402Z,15.13
2019-03-26T19:23:14.888Z,13.05
2019-03-26T19:25:43.341Z,11.43
2019-03-26T19:28:11.790Z,11.33
2019-03-26T19:30:40.252Z,10.25
2019-03-26T19:33:08.679Z,9.90
2019-03-26T19:35:37.101Z,8.43
2019-03-26T19:38:05.539Z,7.50
2019-03-26T19:40:33.951Z,7.87
2019-03-26T19:43:10.597Z,8.83
2019-03-26T19:45:32.615Z,7.65
2019-03-26T19:48:01.051Z,8.00
2019-03-26T19:50:29.470Z,8.00
2019-03-26T19:52:57.915Z,8.93
2019-03-26T19:55:26.332Z,9.63
2019-03-26T19:57:54.850Z,8.20
2019-03-26T20:00:23.376Z,7.75
2019-03-26T20:02:51.832Z,7.33
2019-03-26T20:05:20.267Z,7.05
2019-03-26T20:07:48.707Z,8.13
2019-03-26T20:10:18.038Z,7.42
2019-03-26T20:12:46.495Z,7.20
2019-03-26T20:15:15.700Z,7.80
2019-03-26T20:17:44.098Z,7.08
2019-03-26T20:20:13.221Z,7.92
2019-03-26T20:22:41.634Z,6.22
2019-03-26T20:25:10.513Z,7.25
2019-03-26T20:27:38.977Z,6.30
2019-03-26T20:30:09.357Z,6.77
2019-03-26T20:32:37.799Z,6.70
2019-03-26T20:35:07.760Z,6.90
2019-03-26T20:37:36.209Z,5.63
2019-03-26T20:40:09.288Z,6.00
2019-03-26T20:42:38.448Z,7.70
2019-03-26T20:45:09.600Z,6.75
2019-03-26T20:47:38.202Z,6.67
2019-03-26T20:50:07.668Z,6.53
2019-03-26T20:52:36.367Z,6.43
2019-03-26T20:55:07.023Z,5.58
2019-03-26T20:57:37.265Z,6.58
2019-03-26T21:00:08.170Z,5.45
2019-03-26T21:02:36.597Z,5.73
2019-03-26T21:05:07.877Z,6.23
2019-03-26T21:07:37.622Z,6.50
2019-03-26T21:10:07.412Z,5.90
2019-03-26T21:12:35.847Z,6.50
2019-03-26T21:15:09.102Z,6.75
2019-03-26T21:17:38.076Z,7.03
2019-03-26T21:20:09.040Z,6.83
2019-03-26T21:22:37.624Z,6.60
2019-03-26T21:25:07.804Z,5.83
2019-03-26T21:27:36.245Z,6.13
2019-03-26T21:30:12.523Z,6.35
2019-03-26T21:32:39.977Z,6.27
2019-03-26T21:35:09.044Z,6.17
2019-03-26T21:37:38.819Z,5.87
2019-03-26T21:40:09.092Z,6.12
2019-03-26T21:42:37.509Z,6.20
2019-03-26T21:45:08.288Z,5.83
2019-03-26T21:47:36.969Z,6.08
2019-03-26T21:50:06.160Z,6.47
2019-03-26T21:52:34.566Z,5.63
2019-03-26T21:55:03.156Z,5.63
2019-03-26T21:57:31.594Z,5.83
2019-03-26T22:00:00.013Z,5.37
2019-03-26T22:02:28.446Z,5.85
2019-03-26T22:04:56.924Z,5.73
2019-03-26T22:07:25.336Z,5.87
2019-03-26T22:09:53.782Z,5.97
2019-03-26T22:12:22.212Z,4.95
2019-03-26T22:14:50.651Z,6.20
2019-03-26T22:17:19.346Z,6.12
2019-03-26T22:19:47.789Z,5.92
2019-03-26T22:22:16.212Z,6.03
2019-03-26T22:24:44.644Z,5.70
2019-03-26T22:27:13.066Z,5.37
2019-03-26T22:29:41.478Z,6.20
2019-03-26T22:32:09.924Z,5.72
2019-03-26T22:34:38.340Z,6.33
2019-03-26T22:37:06.774Z,5.67
2019-03-26T22:39:35.199Z,5.35
2019-03-26T22:42:03.702Z,5.53
2019-03-26T22:44:32.115Z,5.67
2019-03-26T22:47:00.556Z,4.97
2019-03-26T22:49:28.968Z,4.83
2019-03-26T22:51:57.461Z,6.05
2019-03-26T22:54:25.920Z,5.13
2019-03-26T22:56:54.338Z,5.83
2019-03-26T22:59:22.804Z,4.83
2019-03-26T23:01:51.290Z,5.27
2019-03-26T23:04:20.266Z,5.60
2019-03-26T23:06:48.719Z,5.03
2019-03-26T23:09:17.168Z,5.37
2019-03-26T23:11:45.693Z,5.70
2019-03-26T23:14:14.255Z,5.43
2019-03-26T23:16:42.873Z,5.47
2019-03-26T23:19:11.289Z,5.15
2019-03-26T23:21:39.744Z,5.50
2019-03-26T23:24:08.185Z,5.90
2019-03-26T23:26:36.629Z,5.72
2019-03-26T23:29:07.879Z,5.53
2019-03-26T23:31:35.227Z,4.67
2019-03-26T23:34:03.642Z,4.83
2019-03-26T23:36:32.081Z,5.00
2019-03-26T23:39:00.564Z,5.25
2019-03-26T23:41:28.967Z,5.28
2019-03-26T23:43:57.387Z,5.70
2019-03-26T23:46:25.820Z,5.55
2019-03-26T23:48:54.252Z,5.40
2019-03-26T23:51:22.683Z,4.80
2019-03-26T23:53:51.117Z,5.13
2019-03-26T23:56:19.534Z,5.20
2019-03-26T23:58:47.993Z,5.27
